createdAt,value
2019-03-22T00:00:20.163Z,10.32
2019-03-22T00:02:48.963Z,12.65
2019-03-22T00:05:17.751Z,14.80
2019-03-22T00:07:48.536Z,16.48
2019-03-22T00:10:16.924Z,13.43
2019-03-22T00:12:45.800Z,11.55
2019-03-22T00:15:14.564Z,9.43
2019-03-22T00:17:43.359Z,11.88
2019-03-22T00:20:12.555Z,11.95
2019-03-22T00:22:41.083Z,14.20
2019-03-22T00:25:10.139Z,15.10
2019-03-22T00:27:38.595Z,13.08
2019-03-22T00:30:10.831Z,12.13
2019-03-22T00:32:39.586Z,12.25
2019-03-22T00:35:09.206Z,11.90
2019-03-22T00:37:37.798Z,11.95
2019-03-22T00:40:06.911Z,12.80
2019-03-22T00:42:35.787Z,10.13
2019-03-22T00:45:06.366Z,13.65
2019-03-22T00:47:34.822Z,12.20
2019-03-22T00:50:07.515Z,13.13
2019-03-22T00:52:37.243Z,11.90
2019-03-22T00:55:06.807Z,12.13
2019-03-22T00:57:35.276Z,12.58
2019-03-22T01:00:07.032Z,12.00
2019-03-22T01:02:35.478Z,13.43
2019-03-22T01:05:06.791Z,13.00
2019-03-22T01:07:35.684Z,13.55
2019-03-22T01:10:07.235Z,14.00
2019-03-22T01:12:35.754Z,13.75
2019-03-22T01:15:06.939Z,11.50
2019-03-22T01:17:35.463Z,9.75
2019-03-22T01:20:06.742Z,14.20
2019-03-22T01:22:35.199Z,14.33
2019-03-22T01:25:08.213Z,14.95
2019-03-22T01:27:40.773Z,12.28
2019-03-22T01:30:13.140Z,15.50
2019-03-22T01:32:42.790Z,13.93
2019-03-22T01:35:11.913Z,14.87
2019-03-22T01:37:40.378Z,11.80
2019-03-22T01:40:11.291Z,14.20
2019-03-22T01:42:39.816Z,14.20
2019-03-22T01:45:11.268Z,14.95
2019-03-22T01:47:40.008Z,13.75
2019-03-22T01:50:11.971Z,13.80
2019-03-22T01:52:47.558Z,12.40
2019-03-22T01:55:16.321Z,10.80
2019-03-22T01:57:52.942Z,10.48
2019-03-22T02:00:16.762Z,13.65
2019-03-22T02:02:45.555Z,16.10
2019-03-22T02:05:14.863Z,14.23
2019-03-22T02:07:43.314Z,13.35
2019-03-22T02:10:13.063Z,14.50
2019-03-22T02:12:41.583Z,14.40
2019-03-22T02:15:16.535Z,14.45
2019-03-22T02:17:45.135Z,16.07
2019-03-22T02:20:16.215Z,12.28
2019-03-22T02:22:50.963Z,15.20
2019-03-22T02:25:19.837Z,14.98
2019-03-22T02:27:48.297Z,14.55
2019-03-22T02:30:18.875Z,15.05
2019-03-22T02:32:47.759Z,15.10
2019-03-22T02:35:28.341Z,16.05
2019-03-22T02:37:47.185Z,15.63
2019-03-22T02:40:16.084Z,14.65
2019-03-22T02:42:44.966Z,13.18
2019-03-22T02:45:15.010Z,16.27
2019-03-22T02:47:43.889Z,18.48
2019-03-22T02:50:18.653Z,13.38
2019-03-22T02:52:45.280Z,14.68
2019-03-22T02:55:14.567Z,12.78
2019-03-22T02:57:43.372Z,14.55
2019-03-22T03:00:14.915Z,12.75
2019-03-22T03:02:43.707Z,11.90
2019-03-22T03:05:12.328Z,14.10
2019-03-22T03:07:41.081Z,15.25
2019-03-22T03:10:16.261Z,16.52
2019-03-22T03:12:51.830Z,14.45
2019-03-22T03:15:20.663Z,17.27
2019-03-22T03:17:49.458Z,15.75
2019-03-22T03:20:19.544Z,14.10
2019-03-22T03:22:48.009Z,15.43
2019-03-22T03:25:16.680Z,18.90
2019-03-22T03:27:45.563Z,15.72
2019-03-22T03:30:21.902Z,16.00
2019-03-22T03:32:51.674Z,12.05
2019-03-22T03:35:20.540Z,10.63
2019-03-22T03:37:49.454Z,12.58
2019-03-22T03:40:18.492Z,15.28
2019-03-22T03:42:46.967Z,12.55
2019-03-22T03:45:27.560Z,15.05
2019-03-22T03:47:56.040Z,16.07
2019-03-22T03:50:24.839Z,14.47
2019-03-22T03:53:00.353Z,13.15
2019-03-22T03:55:29.489Z,14.18
2019-03-22T03:57:58.184Z,17.40
2019-03-22T04:00:26.971Z,13.55
2019-03-22T04:02:55.870Z,14.23
2019-03-22T04:05:24.639Z,18.35
2019-03-22T04:07:53.464Z,18.48
2019-03-22T04:10:21.918Z,15.05
2019-03-22T04:12:50.398Z,13.08
2019-03-22T04:15:19.298Z,10.45
2019-03-22T04:17:48.183Z,15.03
2019-03-22T04:20:16.652Z,13.22
2019-03-22T04:22:45.212Z,14.73
2019-03-22T04:25:13.747Z,15.95
2019-03-22T04:27:42.301Z,15.88
2019-03-22T04:30:11.772Z,13.75
2019-03-22T04:32:40.248Z,14.43
2019-03-22T04:35:10.274Z,16.10
2019-03-22T04:37:38.743Z,14.33
2019-03-22T04:40:19.203Z,13.62
2019-03-22T04:43:06.511Z,14.43
2019-03-22T04:45:36.858Z,15.93
2019-03-22T04:48:13.960Z,17.27
2019-03-22T04:50:45.063Z,13.62
2019-03-22T04:53:21.659Z,11.50
2019-03-22T04:55:52.319Z,14.10
2019-03-22T04:58:22.835Z,16.05
2019-03-22T05:00:53.003Z,15.32
2019-03-22T05:03:23.979Z,14.50
2019-03-22T05:05:53.931Z,16.75
2019-03-22T05:08:25.362Z,16.27
2019-03-22T05:10:55.811Z,17.48
2019-03-22T05:13:28.797Z,17.25
2019-03-22T05:15:57.860Z,17.98
2019-03-22T05:18:29.066Z,14.33
2019-03-22T05:20:58.236Z,13.18
2019-03-22T05:23:28.515Z,11.97
2019-03-22T05:25:59.916Z,11.22
2019-03-22T05:28:30.692Z,14.58
2019-03-22T05:31:11.519Z,16.00
2019-03-22T05:33:43.378Z,18.62
2019-03-22T05:36:11.843Z,18.12
2019-03-22T05:38:40.783Z,16.77
2019-03-22T05:41:09.291Z,15.18
2019-03-22T05:43:37.766Z,14.80
2019-03-22T05:46:06.631Z,16.87
2019-03-22T05:48:35.099Z,18.32
2019-03-22T05:51:03.554Z,18.73
2019-03-22T05:53:32.032Z,18.45
2019-03-22T05:56:00.482Z,14.43
2019-03-22T05:58:29.265Z,14.80
2019-03-22T06:00:57.787Z,14.75
2019-03-22T06:03:26.544Z,13.35
2019-03-22T06:05:55.091Z,12.73
2019-03-22T06:08:23.551Z,12.93
2019-03-22T06:10:52.030Z,15.48
2019-03-22T06:13:20.563Z,13.35
2019-03-22T06:15:49.376Z,12.35
2019-03-22T06:18:17.831Z,12.30
2019-03-22T06:20:46.316Z,14.00
2019-03-22T06:23:14.843Z,14.98
2019-03-22T06:25:43.393Z,16.12
2019-03-22T06:28:12.110Z,16.15
2019-03-22T06:30:40.905Z,13.98
2019-03-22T06:33:09.359Z,13.30
2019-03-22T06:35:37.831Z,13.25
2019-03-22T06:38:06.574Z,11.50
2019-03-22T06:40:35.540Z,13.20
2019-03-22T06:43:04.363Z,14.65
2019-03-22T06:46:10.704Z,15.23
2019-03-22T06:48:39.610Z,16.32
2019-03-22T06:51:08.158Z,14.63
2019-03-22T06:53:36.692Z,12.75
2019-03-22T06:56:06.456Z,13.15
2019-03-22T06:58:35.190Z,12.70
2019-03-22T07:01:03.731Z,11.88
2019-03-22T07:03:32.576Z,13.60
2019-03-22T07:06:01.355Z,9.70
2019-03-22T07:08:29.812Z,10.53
2019-03-22T07:10:58.359Z,10.18
2019-03-22T07:13:26.815Z,17.27
2019-03-22T07:15:55.294Z,21.45
2019-03-22T07:18:24.091Z,18.77
2019-03-22T07:20:52.571Z,15.80
2019-03-22T07:23:21.377Z,14.63
2019-03-22T07:25:49.849Z,20.27
2019-03-22T07:28:18.379Z,22.15
2019-03-22T07:30:46.856Z,16.27
2019-03-22T07:33:15.723Z,18.15
2019-03-22T07:35:44.520Z,21.50
2019-03-22T07:38:13.311Z,29.35
2019-03-22T07:40:42.094Z,29.60
2019-03-22T07:43:10.560Z,35.50
2019-03-22T07:45:39.035Z,66.55
2019-03-22T07:48:07.770Z,34.48
2019-03-22T07:50:36.656Z,33.67
2019-03-22T07:53:05.558Z,31.17
2019-03-22T07:55:34.100Z,25.15
2019-03-22T07:58:02.937Z,23.80
2019-03-22T08:00:31.735Z,15.32
2019-03-22T08:03:00.265Z,13.35
2019-03-22T08:05:28.878Z,12.23
2019-03-22T08:07:57.700Z,12.85
2019-03-22T08:10:26.591Z,15.38
2019-03-22T08:12:55.424Z,13.18
2019-03-22T08:15:26.631Z,13.35
2019-03-22T08:17:57.123Z,13.25
2019-03-22T08:20:25.313Z,13.53
2019-03-22T08:22:53.832Z,13.13
2019-03-22T08:25:22.295Z,11.63
2019-03-22T08:27:50.811Z,11.85
2019-03-22T08:30:19.310Z,9.60
2019-03-22T08:32:50.304Z,10.43
2019-03-22T08:35:18.235Z,9.05
2019-03-22T08:37:52.466Z,9.60
2019-03-22T08:40:16.977Z,10.08
2019-03-22T08:42:45.926Z,9.28
2019-03-22T08:45:14.682Z,9.50
2019-03-22T08:47:43.209Z,8.43
2019-03-22T08:50:11.823Z,7.62
2019-03-22T08:52:40.703Z,8.58
2019-03-22T08:55:09.577Z,10.95
2019-03-22T08:57:38.468Z,10.05
2019-03-22T09:00:12.650Z,7.05
2019-03-22T09:02:41.171Z,7.47
2019-03-22T09:05:11.267Z,7.00
2019-03-22T09:07:39.739Z,6.80
2019-03-22T09:10:12.868Z,6.45
2019-03-22T09:12:41.419Z,6.53
2019-03-22T09:15:12.149Z,5.87
2019-03-22T09:17:40.661Z,7.03
2019-03-22T09:20:10.650Z,7.15
2019-03-22T09:22:39.135Z,6.70
2019-03-22T09:25:08.079Z,6.25
2019-03-22T09:27:36.815Z,6.22
2019-03-22T09:30:11.511Z,6.05
2019-03-22T09:32:39.989Z,6.20
2019-03-22T09:35:10.010Z,6.58
2019-03-22T09:37:38.582Z,6.83
2019-03-22T09:40:08.582Z,6.65
2019-03-22T09:42:37.245Z,6.83
2019-03-22T09:45:07.515Z,7.90
2019-03-22T09:47:36.327Z,7.08
2019-03-22T09:50:09.963Z,6.72
2019-03-22T09:52:38.564Z,7.03
2019-03-22T09:55:13.650Z,7.10
2019-03-22T09:57:38.928Z,8.40
2019-03-22T10:00:11.084Z,8.50
2019-03-22T10:02:40.336Z,8.20
2019-03-22T10:05:11.699Z,7.87
2019-03-22T10:07:40.476Z,7.75
2019-03-22T10:10:09.683Z,6.90
2019-03-22T10:12:38.155Z,7.20
2019-03-22T10:15:07.251Z,8.40
2019-03-22T10:17:36.051Z,8.30
2019-03-22T10:20:05.948Z,9.25
2019-03-22T10:22:34.444Z,11.85
2019-03-22T10:25:03.519Z,11.75
2019-03-22T10:27:32.252Z,11.35
2019-03-22T10:30:00.785Z,11.15
2019-03-22T10:32:29.593Z,11.00
2019-03-22T10:34:58.161Z,11.50
2019-03-22T10:37:26.796Z,11.55
2019-03-22T10:39:55.742Z,12.35
2019-03-22T10:42:24.293Z,11.95
2019-03-22T10:44:52.939Z,12.95
2019-03-22T10:47:21.883Z,12.73
2019-03-22T10:49:50.421Z,13.05
2019-03-22T10:52:18.889Z,12.63
2019-03-22T10:54:47.440Z,12.60
2019-03-22T10:57:15.902Z,13.25
2019-03-22T10:59:44.377Z,11.95
2019-03-22T11:02:12.832Z,13.55
2019-03-22T11:04:41.317Z,12.95
2019-03-22T11:07:10.184Z,13.40
2019-03-22T11:09:39.067Z,12.90
2019-03-22T11:12:12.271Z,13.22
2019-03-22T11:14:38.399Z,12.55
2019-03-22T11:17:06.863Z,11.80
2019-03-22T11:19:35.334Z,13.80
2019-03-22T11:22:04.164Z,12.43
2019-03-22T11:24:32.645Z,12.98
2019-03-22T11:27:01.649Z,11.38
2019-03-22T11:29:30.123Z,12.18
2019-03-22T11:31:58.922Z,11.68
2019-03-22T11:34:27.669Z,11.70
2019-03-22T11:36:56.194Z,10.58
2019-03-22T11:39:24.679Z,10.85
2019-03-22T11:41:53.485Z,9.48
2019-03-22T11:44:22.034Z,11.60
2019-03-22T11:46:50.563Z,10.45
2019-03-22T11:49:19.043Z,7.70
2019-03-22T11:51:47.502Z,6.15
2019-03-22T11:54:15.962Z,5.25
2019-03-22T11:56:44.418Z,5.25
2019-03-22T11:59:12.892Z,4.60
2019-03-22T12:01:41.350Z,3.70
2019-03-22T12:04:11.836Z,5.55
2019-03-22T12:06:40.067Z,6.15
2019-03-22T12:28:51.943Z,3.15
2019-03-22T12:31:20.847Z,2.92
2019-03-22T12:33:49.632Z,2.50
2019-03-22T12:36:18.107Z,2.90
2019-03-22T12:38:46.559Z,3.08
2019-03-22T12:41:15.032Z,2.85
2019-03-22T12:43:43.775Z,2.95
2019-03-22T12:46:12.249Z,3.75
2019-03-22T12:48:40.781Z,3.70
2019-03-22T12:51:09.319Z,3.60
2019-03-22T12:53:38.135Z,3.60
2019-03-22T12:56:06.867Z,4.40
2019-03-22T12:58:35.583Z,3.60
2019-03-22T13:01:04.391Z,3.37
2019-03-22T13:03:32.843Z,3.52
2019-03-22T13:06:01.588Z,3.80
2019-03-22T13:08:30.110Z,2.92
2019-03-22T13:10:58.578Z,3.58
2019-03-22T13:13:27.351Z,4.25
2019-03-22T13:15:55.823Z,4.15
2019-03-22T13:18:24.277Z,4.08
2019-03-22T13:20:53.008Z,3.62
2019-03-22T13:23:21.459Z,3.12
2019-03-22T13:25:49.928Z,2.70
2019-03-22T13:28:18.675Z,2.92
2019-03-22T13:30:47.469Z,2.72
2019-03-22T13:33:16.001Z,2.12
2019-03-22T13:35:44.842Z,2.08
2019-03-22T13:38:13.294Z,2.47
2019-03-22T13:40:41.766Z,1.87
2019-03-22T13:43:10.512Z,2.00
2019-03-22T13:45:38.978Z,1.85
2019-03-22T13:48:07.792Z,1.57
2019-03-22T13:50:36.583Z,1.60
2019-03-22T13:53:05.483Z,1.72
2019-03-22T13:55:34.367Z,2.20
2019-03-22T13:58:02.900Z,2.60
2019-03-22T14:00:31.404Z,2.08
2019-03-22T14:03:03.157Z,2.80
2019-03-22T14:05:30.766Z,2.67
2019-03-22T14:07:59.220Z,3.00
2019-03-22T14:10:33.166Z,2.60
2019-03-22T14:13:03.171Z,3.50
2019-03-22T14:15:31.622Z,3.77
2019-03-22T14:18:00.979Z,3.30
2019-03-22T14:20:30.475Z,2.60
2019-03-22T14:22:59.387Z,2.60
2019-03-22T14:25:28.279Z,2.52
2019-03-22T14:27:57.073Z,3.00
2019-03-22T14:30:25.782Z,3.00
2019-03-22T14:32:54.994Z,2.60
2019-03-22T14:35:23.878Z,2.40
2019-03-22T14:37:52.399Z,3.08
2019-03-22T14:40:20.861Z,2.80
2019-03-22T14:42:49.407Z,2.92
2019-03-22T14:45:18.195Z,2.70
2019-03-22T14:47:47.007Z,3.10
2019-03-22T14:50:15.600Z,2.77
2019-03-22T14:52:44.333Z,2.85
2019-03-22T14:55:13.039Z,3.20
2019-03-22T14:57:48.990Z,3.47
2019-03-22T15:00:13.583Z,2.90
2019-03-22T15:02:42.059Z,2.70
2019-03-22T15:05:11.523Z,2.60
2019-03-22T15:07:40.311Z,3.00
2019-03-22T15:10:10.706Z,2.35
2019-03-22T15:12:39.539Z,2.40
2019-03-22T15:15:11.538Z,2.15
2019-03-22T15:17:56.883Z,2.50
2019-03-22T15:20:43.626Z,2.00
2019-03-22T15:23:16.386Z,2.35
2019-03-22T15:25:46.483Z,2.70
2019-03-22T15:28:16.907Z,2.40
2019-03-22T15:31:03.539Z,2.12
2019-03-22T15:33:34.647Z,2.05
2019-03-22T15:38:45.629Z,2.20
2019-03-22T15:41:14.443Z,2.17
2019-03-22T15:43:43.238Z,2.20
2019-03-22T15:46:12.136Z,2.47
2019-03-22T15:48:40.923Z,2.30
2019-03-22T15:51:09.373Z,2.45
2019-03-22T15:53:37.838Z,2.50
2019-03-22T15:56:06.587Z,2.60
2019-03-22T15:58:36.283Z,2.58
2019-03-22T16:01:05.520Z,2.25
2019-03-22T16:03:43.863Z,2.65
2019-03-22T16:06:23.574Z,2.20
2019-03-22T16:08:52.346Z,3.27
2019-03-22T16:11:20.799Z,2.45
2019-03-22T16:13:49.273Z,2.80
2019-03-22T16:16:17.723Z,2.50
2019-03-22T16:18:46.491Z,2.47
2019-03-22T16:21:15.287Z,2.85
2019-03-22T16:23:43.767Z,2.67
2019-03-22T16:26:12.220Z,2.47
2019-03-22T16:28:40.691Z,2.33
2019-03-22T16:31:09.435Z,2.10
2019-03-22T16:33:38.159Z,2.20
2019-03-22T16:36:06.615Z,2.17
2019-03-22T16:38:35.092Z,2.55
2019-03-22T16:41:03.546Z,2.33
2019-03-22T16:43:32.383Z,3.47
2019-03-22T16:46:01.096Z,3.05
2019-03-22T16:48:29.963Z,2.62
2019-03-22T16:50:58.757Z,2.80
2019-03-22T16:53:27.284Z,2.77
2019-03-22T16:55:56.035Z,3.08
2019-03-22T16:58:24.828Z,5.33
2019-03-22T17:00:53.303Z,4.67
2019-03-22T17:03:21.828Z,13.43
2019-03-22T17:05:50.606Z,13.20
2019-03-22T17:08:19.190Z,11.73
2019-03-22T17:10:47.672Z,11.45
2019-03-22T17:13:16.132Z,11.08
2019-03-22T17:15:44.598Z,9.13
2019-03-22T17:18:13.056Z,7.87
2019-03-22T17:20:41.535Z,6.78
2019-03-22T17:23:09.995Z,4.53
2019-03-22T17:25:38.782Z,5.87
2019-03-22T17:28:07.234Z,6.62
2019-03-22T17:30:35.706Z,5.42
2019-03-22T17:33:04.233Z,6.65
2019-03-22T17:35:33.040Z,6.70
2019-03-22T17:38:01.566Z,5.90
2019-03-22T17:40:30.039Z,7.05
2019-03-22T17:42:58.799Z,4.50
2019-03-22T17:45:27.275Z,4.15
2019-03-22T17:47:56.079Z,8.05
2019-03-22T17:50:24.872Z,4.92
2019-03-22T17:52:53.663Z,13.10
2019-03-22T17:55:22.463Z,14.63
2019-03-22T17:57:51.362Z,7.55
2019-03-22T18:00:21.615Z,4.72
2019-03-22T18:02:50.075Z,11.97
2019-03-22T18:05:18.802Z,8.70
2019-03-22T18:07:47.263Z,5.35
2019-03-22T18:10:16.031Z,8.03
2019-03-22T18:12:44.486Z,5.10
2019-03-22T18:15:16.035Z,6.87
2019-03-22T18:17:44.495Z,12.07
2019-03-22T18:20:15.502Z,6.05
2019-03-22T18:22:44.291Z,7.87
2019-03-22T18:25:15.701Z,7.00
2019-03-22T18:27:44.006Z,7.30
2019-03-22T18:30:17.530Z,4.72
2019-03-22T18:32:46.351Z,6.25
2019-03-22T18:35:14.895Z,12.03
2019-03-22T18:37:43.344Z,7.45
2019-03-22T18:40:15.992Z,6.15
2019-03-22T18:42:44.770Z,6.58
2019-03-22T18:45:14.171Z,6.00
2019-03-22T18:47:43.484Z,6.10
2019-03-22T18:50:13.278Z,5.80
2019-03-22T18:52:41.813Z,6.28
2019-03-22T18:55:10.708Z,6.17
2019-03-22T18:57:39.471Z,6.45
2019-03-22T19:00:13.887Z,5.85
2019-03-22T19:02:42.687Z,6.53
2019-03-22T19:05:11.579Z,8.05
2019-03-22T19:07:43.027Z,8.53
2019-03-22T19:10:13.370Z,7.53
2019-03-22T19:12:41.830Z,7.92
2019-03-22T19:15:12.283Z,12.00
2019-03-22T19:17:41.022Z,11.30
2019-03-22T19:20:11.555Z,10.65
2019-03-22T19:22:40.398Z,9.53
2019-03-22T19:25:09.702Z,10.10
2019-03-22T19:27:38.497Z,10.60
2019-03-22T19:30:12.587Z,9.03
2019-03-22T19:32:41.119Z,7.47
2019-03-22T19:35:09.814Z,12.00
2019-03-22T19:37:38.288Z,9.68
2019-03-22T19:40:09.216Z,9.15
2019-03-22T19:42:38.003Z,10.50
2019-03-22T19:45:09.375Z,8.85
2019-03-22T19:47:39.383Z,6.87
2019-03-22T19:50:10.075Z,9.53
2019-03-22T19:52:38.906Z,9.43
2019-03-22T19:55:09.094Z,7.45
2019-03-22T19:57:38.038Z,8.40
2019-03-22T20:00:19.675Z,12.07
2019-03-22T20:02:49.276Z,7.65
2019-03-22T20:05:33.970Z,7.65
2019-03-22T20:08:04.104Z,7.78
2019-03-22T20:10:32.555Z,6.42
2019-03-22T20:13:01.385Z,9.13
2019-03-22T20:15:30.167Z,10.43
2019-03-22T20:17:58.967Z,9.10
2019-03-22T20:20:27.466Z,8.43
2019-03-22T20:22:56.250Z,10.23
2019-03-22T20:25:25.147Z,10.20
2019-03-22T20:27:54.035Z,9.33
2019-03-22T20:30:22.559Z,8.65
2019-03-22T20:32:51.029Z,8.48
2019-03-22T20:35:19.491Z,9.33
2019-03-22T20:37:48.045Z,12.35
2019-03-22T20:40:18.207Z,7.12
2019-03-22T20:42:47.312Z,8.25
2019-03-22T20:45:24.068Z,9.40
2019-03-22T20:47:47.245Z,8.53
2019-03-22T20:50:15.707Z,8.48
2019-03-22T20:52:44.523Z,7.45
2019-03-22T20:55:13.427Z,7.33
2019-03-22T20:57:41.943Z,8.38
2019-03-22T21:00:16.427Z,9.18
2019-03-22T21:02:44.879Z,8.60
2019-03-22T21:05:13.692Z,10.20
2019-03-22T21:07:42.450Z,7.37
2019-03-22T21:10:11.021Z,7.55
2019-03-22T21:12:39.519Z,8.25
2019-03-22T21:15:12.255Z,9.23
2019-03-22T21:17:40.720Z,11.00
2019-03-22T21:20:10.675Z,9.70
2019-03-22T21:22:39.556Z,9.75
2019-03-22T21:25:09.628Z,10.48
2019-03-22T21:27:38.371Z,11.53
2019-03-22T21:30:12.796Z,10.32
2019-03-22T21:32:45.382Z,11.03
2019-03-22T21:35:22.037Z,8.83
2019-03-22T21:37:57.383Z,10.08
2019-03-22T21:40:25.855Z,9.65
2019-03-22T21:42:54.321Z,9.75
2019-03-22T21:45:23.152Z,11.43
2019-03-22T21:47:51.611Z,11.18
2019-03-22T21:50:20.424Z,12.18
2019-03-22T21:52:49.319Z,12.55
2019-03-22T21:55:17.791Z,11.48
2019-03-22T21:57:46.243Z,14.38
2019-03-22T22:00:16.055Z,12.98
2019-03-22T22:02:44.799Z,11.85
2019-03-22T22:05:13.271Z,14.28
2019-03-22T22:07:41.723Z,14.05
2019-03-22T22:10:10.832Z,11.50
2019-03-22T22:12:39.278Z,13.88
2019-03-22T22:15:12.349Z,13.20
2019-03-22T22:17:41.253Z,12.40
2019-03-22T22:20:10.920Z,12.85
2019-03-22T22:22:39.450Z,13.68
2019-03-22T22:25:08.867Z,14.45
2019-03-22T22:27:37.319Z,12.47
2019-03-22T22:30:08.133Z,12.00
2019-03-22T22:32:36.865Z,11.50
2019-03-22T22:35:07.375Z,12.00
2019-03-22T22:37:36.935Z,11.40
2019-03-22T22:40:10.268Z,13.53
2019-03-22T22:42:38.795Z,14.95
2019-03-22T22:45:09.623Z,12.50
2019-03-22T22:47:38.074Z,11.93
2019-03-22T22:50:10.902Z,13.35
2019-03-22T22:52:39.433Z,15.28
2019-03-22T22:55:09.214Z,15.53
2019-03-22T22:57:37.991Z,12.25
2019-03-22T23:00:11.899Z,12.65
2019-03-22T23:02:40.375Z,13.53
2019-03-22T23:05:08.834Z,14.70
2019-03-22T23:07:37.667Z,16.57
2019-03-22T23:10:07.531Z,17.82
2019-03-22T23:12:36.477Z,12.98
2019-03-22T23:15:09.271Z,15.00
2019-03-22T23:17:39.038Z,16.10
2019-03-22T23:20:09.406Z,13.72
2019-03-22T23:22:37.880Z,15.85
2019-03-22T23:25:07.475Z,14.40
2019-03-22T23:27:36.865Z,13.35
2019-03-22T23:30:07.339Z,13.70
2019-03-22T23:32:35.811Z,15.63
2019-03-22T23:35:05.964Z,15.15
2019-03-22T23:37:34.745Z,13.30
2019-03-22T23:40:04.215Z,15.03
2019-03-22T23:42:32.682Z,14.07
2019-03-22T23:45:01.435Z,13.18
2019-03-22T23:47:29.983Z,13.22
2019-03-22T23:49:58.440Z,13.48
2019-03-22T23:52:26.914Z,15.15
2019-03-22T23:54:55.441Z,14.58
2019-03-22T23:57:24.371Z,14.53
2019-03-22T23:59:52.827Z,12.98
